KDHT/DHT METAR and TAF weather

Enter ICAO airport designator
Station Type Date Time Source
KDHT METAR 2018/12/10 17:53 UTC NOAA

KDHT 101753Z AUTO 00000KT 10SM CLR 07/M07 A3031 RMK AO2 SLP274 T00721072 10072 21067 58001


Station Type Date Time Source
KDHT Decoded METAR 2018/12/10 17:53 UTC NOAA

DALHART MUNICIPAL AIRPORT, TX, United States (KDHT) 36-01N 102-33W 1217M
Dec 10, 2018 - 12:53 PM EST / 2018.12.10 1753 UTC
Wind: Calm:0
Visibility: 10 mile(s):0
Sky conditions: clear
Temperature: 45.0 F (7.2 C)
Dew Point: 19.0 F (-7.2 C)
Relative Humidity: 35%
Pressure (altimeter): 30.31 in. Hg (1026 hPa)
Pressure tendency: 0.00 inches (0.1 hPa) lower than three hours ago
ob: KDHT 101753Z AUTO 00000KT 10SM CLR 07/M07 A3031 RMK AO2 SLP274 T00721072 10072 21067 58001
cycle: 18

Station Type Date Time Source
KDHT TAF 2018/12/10 18:36 UTC NOAA

TAF KDHT 101734Z 1018/1118 VRB03KT P6SM SKC
FM110900 22011G22KT P6SM SCT250


Example: see airport list